Terminal Aerodrome Forecast
Issued by NWS

Home | Current Version | Previous Version | Text Only | Print | Product List | Glossary On
Versions: 1 2 3 4 5 6 7 8 9 10 11 12 13 14 15 16 17 18 19 20 21
185
FTUS42 TJSJ 182320
TAFIST
TAF
TIST 182320Z 1900/1924 05013G19KT P6SM FEW030
     FM191300 09012G18KT P6SM FEW025
     FM192300 08010G20KT P6SM VCSH FEW025=

USA.gov is the U.S. government's official web portal to all federal, state and local government web resources and services.